sensor_id;sensor_type;location;lat;lon;timestamp;temperature;humidity
56123;DHT22;42426;46.104;19.656;2023-12-14T15:00:30;230.90;2252.80
56123;DHT22;42426;46.104;19.656;2023-12-14T15:02:58;230.80;2252.80
56123;DHT22;42426;46.104;19.656;2023-12-14T15:05:24;230.80;2252.80
56123;DHT22;42426;46.104;19.656;2023-12-14T15:07:49;230.70;2252.80
56123;DHT22;42426;46.104;19.656;2023-12-14T15:10:15;230.80;2252.80
56123;DHT22;42426;46.104;19.656;2023-12-14T15:12:41;230.80;2252.80
56123;DHT22;42426;46.104;19.656;2023-12-14T15:15:08;230.70;2252.80
56123;DHT22;42426;46.104;19.656;2023-12-14T15:17:36;230.80;2252.80
56123;DHT22;42426;46.104;19.656;2023-12-14T15:20:02;230.80;2252.80
56123;DHT22;42426;46.104;19.656;2023-12-14T15:22:31;230.70;2252.80
56123;DHT22;42426;46.104;19.656;2023-12-14T15:24:57;230.70;2252.80
56123;DHT22;42426;46.104;19.656;2023-12-14T15:27:22;230.70;2252.80
56123;DHT22;42426;46.104;19.656;2023-12-14T15:29:48;230.70;2252.80
56123;DHT22;42426;46.104;19.656;2023-12-14T15:32:15;230.80;2252.80
56123;DHT22;42426;46.104;19.656;2023-12-14T15:34:41;230.70;2252.80
56123;DHT22;42426;46.104;19.656;2023-12-14T15:37:07;230.70;2252.80
56123;DHT22;42426;46.104;19.656;2023-12-14T15:39:32;230.70;2252.80
56123;DHT22;42426;46.104;19.656;2023-12-14T15:41:58;230.70;2252.80
56123;DHT22;42426;46.104;19.656;2023-12-14T15:44:24;230.70;2252.80
56123;DHT22;42426;46.104;19.656;2023-12-14T15:46:50;230.70;2252.80
56123;DHT22;42426;46.104;19.656;2023-12-14T15:49:15;230.70;2252.80
56123;DHT22;42426;46.104;19.656;2023-12-14T15:51:41;230.70;2252.80
56123;DHT22;42426;46.104;19.656;2023-12-14T15:54:07;230.70;2252.80
56123;DHT22;42426;46.104;19.656;2023-12-14T15:56:34;230.70;2252.80
56123;DHT22;42426;46.104;19.656;2023-12-14T15:59:00;230.70;2252.80
56123;DHT22;42426;46.104;19.656;2023-12-14T16:01:27;230.70;2252.80
56123;DHT22;42426;46.104;19.656;2023-12-14T16:03:53;230.70;2252.80
56123;DHT22;42426;46.104;19.656;2023-12-14T16:06:18;230.70;2252.80
56123;DHT22;42426;46.104;19.656;2023-12-14T16:08:44;230.60;2252.80
56123;DHT22;42426;46.104;19.656;2023-12-14T16:11:10;230.70;2252.80
56123;DHT22;42426;46.104;19.656;2023-12-14T16:13:36;230.70;2252.80
56123;DHT22;42426;46.104;19.656;2023-12-14T16:16:03;230.70;2252.80
56123;DHT22;42426;46.104;19.656;2023-12-14T16:18:29;230.60;2252.80
56123;DHT22;42426;46.104;19.656;2023-12-14T16:20:55;230.70;2252.80
56123;DHT22;42426;46.104;19.656;2023-12-14T16:23:25;230.60;2252.80
56123;DHT22;42426;46.104;19.656;2023-12-14T16:25:50;230.60;2252.80
56123;DHT22;42426;46.104;19.656;2023-12-14T16:28:16;230.60;2252.80
56123;DHT22;42426;46.104;19.656;2023-12-14T16:30:43;230.60;2252.80
56123;DHT22;42426;46.104;19.656;2023-12-14T16:33:09;230.60;2252.80
56123;DHT22;42426;46.104;19.656;2023-12-14T16:35:36;230.60;2252.80
56123;DHT22;42426;46.104;19.656;2023-12-14T16:38:03;230.60;2252.80
56123;DHT22;42426;46.104;19.656;2023-12-14T16:40:28;230.60;2252.80
56123;DHT22;42426;46.104;19.656;2023-12-14T16:42:54;230.60;2252.80
56123;DHT22;42426;46.104;19.656;2023-12-14T16:45:20;230.60;2252.80
56123;DHT22;42426;46.104;19.656;2023-12-14T16:47:46;230.50;2252.80
56123;DHT22;42426;46.104;19.656;2023-12-14T16:50:11;230.50;2252.80
56123;DHT22;42426;46.104;19.656;2023-12-14T16:52:37;230.50;2252.80
56123;DHT22;42426;46.104;19.656;2023-12-14T16:55:03;230.50;2252.80
56123;DHT22;42426;46.104;19.656;2023-12-14T16:57:29;230.50;2252.80
56123;DHT22;42426;46.104;19.656;2023-12-14T16:59:55;230.40;2252.80
56123;DHT22;42426;46.104;19.656;2023-12-14T17:02:21;230.50;2252.80
56123;DHT22;42426;46.104;19.656;2023-12-14T17:04:47;230.40;2252.80
56123;DHT22;42426;46.104;19.656;2023-12-14T17:07:13;230.40;2252.80
56123;DHT22;42426;46.104;19.656;2023-12-14T17:09:39;230.40;2252.80
56123;DHT22;42426;46.104;19.656;2023-12-14T17:12:05;205.70;2252.80
56123;DHT22;42426;46.104;19.656;2023-12-14T17:14:30;205.70;2252.80
56123;DHT22;42426;46.104;19.656;2023-12-14T17:16:56;205.70;2252.80
56123;DHT22;42426;46.104;19.656;2023-12-14T17:19:22;205.70;2252.80
56123;DHT22;42426;46.104;19.656;2023-12-14T17:21:50;205.60;2252.80
56123;DHT22;42426;46.104;19.656;2023-12-14T17:24:16;205.70;2252.80
56123;DHT22;42426;46.104;19.656;2023-12-14T17:26:43;205.70;2252.80
56123;DHT22;42426;46.104;19.656;2023-12-14T17:29:09;205.60;2252.80
56123;DHT22;42426;46.104;19.656;2023-12-14T17:31:36;205.60;2252.80
56123;DHT22;42426;46.104;19.656;2023-12-14T17:34:02;205.60;2252.80
56123;DHT22;42426;46.104;19.656;2023-12-14T17:36:29;205.50;2252.80
56123;DHT22;42426;46.104;19.656;2023-12-14T17:38:55;205.50;2252.80
56123;DHT22;42426;46.104;19.656;2023-12-14T17:41:22;205.50;2252.80
56123;DHT22;42426;46.104;19.656;2023-12-14T17:43:47;205.50;2252.80
56123;DHT22;42426;46.104;19.656;2023-12-14T17:46:14;205.50;2252.80
56123;DHT22;42426;46.104;19.656;2023-12-14T17:48:41;205.50;2252.80
56123;DHT22;42426;46.104;19.656;2023-12-14T17:51:09;205.50;2252.80
56123;DHT22;42426;46.104;19.656;2023-12-14T17:53:34;205.50;2252.80
56123;DHT22;42426;46.104;19.656;2023-12-14T17:56:01;205.50;2252.80
56123;DHT22;42426;46.104;19.656;2023-12-14T17:58:28;205.50;2252.80
56123;DHT22;42426;46.104;19.656;2023-12-14T18:00:53;205.50;2252.80
56123;DHT22;42426;46.104;19.656;2023-12-14T18:03:19;205.50;2252.80
56123;DHT22;42426;46.104;19.656;2023-12-14T18:05:45;205.40;2252.80
56123;DHT22;42426;46.104;19.656;2023-12-14T18:08:11;205.40;2252.80
56123;DHT22;42426;46.104;19.656;2023-12-14T18:10:37;205.40;2252.80
56123;DHT22;42426;46.104;19.656;2023-12-14T18:13:04;205.40;2252.80
56123;DHT22;42426;46.104;19.656;2023-12-14T18:15:30;205.40;2252.80
56123;DHT22;42426;46.104;19.656;2023-12-14T18:17:56;205.40;2252.80
56123;DHT22;42426;46.104;19.656;2023-12-14T18:20:24;205.40;2252.80
56123;DHT22;42426;46.104;19.656;2023-12-14T18:22:49;205.40;2252.80
56123;DHT22;42426;46.104;19.656;2023-12-14T18:25:15;205.40;2252.80
56123;DHT22;42426;46.104;19.656;2023-12-14T18:27:43;205.40;2252.80
56123;DHT22;42426;46.104;19.656;2023-12-14T18:30:09;205.40;2252.80
56123;DHT22;42426;46.104;19.656;2023-12-14T18:32:36;205.40;2252.80
56123;DHT22;42426;46.104;19.656;2023-12-14T18:35:02;205.40;2252.80
56123;DHT22;42426;46.104;19.656;2023-12-14T18:37:29;205.40;2252.80
56123;DHT22;42426;46.104;19.656;2023-12-14T18:39:54;205.50;2252.80
56123;DHT22;42426;46.104;19.656;2023-12-14T18:42:20;205.40;2252.80
56123;DHT22;42426;46.104;19.656;2023-12-14T18:44:46;205.40;2252.80
56123;DHT22;42426;46.104;19.656;2023-12-14T18:47:12;205.40;2252.80
56123;DHT22;42426;46.104;19.656;2023-12-14T18:49:38;205.40;2252.80
56123;DHT22;42426;46.104;19.656;2023-12-14T18:52:04;205.50;2252.80
56123;DHT22;42426;46.104;19.656;2023-12-14T18:54:30;205.40;2252.80
56123;DHT22;42426;46.104;19.656;2023-12-14T18:56:56;205.40;2252.80
56123;DHT22;42426;46.104;19.656;2023-12-14T18:59:22;205.40;2252.80
56123;DHT22;42426;46.104;19.656;2023-12-14T19:01:49;205.40;2252.80
56123;DHT22;42426;46.104;19.656;2023-12-14T19:04:17;205.40;2252.80
56123;DHT22;42426;46.104;19.656;2023-12-14T19:06:43;205.40;2252.80
56123;DHT22;42426;46.104;19.656;2023-12-14T19:09:09;205.40;2252.80
56123;DHT22;42426;46.104;19.656;2023-12-14T19:11:34;205.40;2252.80
56123;DHT22;42426;46.104;19.656;2023-12-14T19:14:00;205.40;2252.80
56123;DHT22;42426;46.104;19.656;2023-12-14T19:16:27;205.30;2252.80
56123;DHT22;42426;46.104;19.656;2023-12-14T19:18:55;205.40;2252.80
56123;DHT22;42426;46.104;19.656;2023-12-14T19:21:21;205.40;2252.80
56123;DHT22;42426;46.104;19.656;2023-12-14T19:23:47;205.40;2252.80
56123;DHT22;42426;46.104;19.656;2023-12-14T19:26:17;205.40;2252.80
56123;DHT22;42426;46.104;19.656;2023-12-14T19:28:43;205.30;2252.80
56123;DHT22;42426;46.104;19.656;2023-12-14T19:31:10;205.40;2252.80
56123;DHT22;42426;46.104;19.656;2023-12-14T19:33:35;205.40;2252.80
56123;DHT22;42426;46.104;19.656;2023-12-14T19:36:01;205.30;2252.80
56123;DHT22;42426;46.104;19.656;2023-12-14T19:38:27;205.30;2252.80
56123;DHT22;42426;46.104;19.656;2023-12-14T19:40:53;205.30;2252.80
56123;DHT22;42426;46.104;19.656;2023-12-14T19:43:18;205.30;2252.80
56123;DHT22;42426;46.104;19.656;2023-12-14T19:45:45;205.40;2252.80
56123;DHT22;42426;46.104;19.656;2023-12-14T19:48:11;205.30;2252.80
56123;DHT22;42426;46.104;19.656;2023-12-14T19:50:37;205.30;2252.80
56123;DHT22;42426;46.104;19.656;2023-12-14T19:53:02;205.30;2252.80
56123;DHT22;42426;46.104;19.656;2023-12-14T19:55:28;205.30;2252.80
56123;DHT22;42426;46.104;19.656;2023-12-14T19:57:54;205.30;2252.80
56123;DHT22;42426;46.104;19.656;2023-12-14T20:00:20;205.40;2252.80
56123;DHT22;42426;46.104;19.656;2023-12-14T20:02:46;205.30;2252.80
56123;DHT22;42426;46.104;19.656;2023-12-14T20:05:12;205.30;2252.80
56123;DHT22;42426;46.104;19.656;2023-12-14T20:07:39;205.50;2252.80
56123;DHT22;42426;46.104;19.656;2023-12-14T20:10:05;205.30;2252.80
56123;DHT22;42426;46.104;19.656;2023-12-14T20:12:31;205.20;2252.80
56123;DHT22;42426;46.104;19.656;2023-12-14T20:14:56;205.20;2252.80
56123;DHT22;42426;46.104;19.656;2023-12-14T20:17:22;205.20;2252.80
56123;DHT22;42426;46.104;19.656;2023-12-14T20:19:49;205.20;2252.80
56123;DHT22;42426;46.104;19.656;2023-12-14T20:22:15;205.20;2252.80
56123;DHT22;42426;46.104;19.656;2023-12-14T20:24:42;205.20;2252.80
56123;DHT22;42426;46.104;19.656;2023-12-14T20:27:08;205.10;2252.80
56123;DHT22;42426;46.104;19.656;2023-12-14T20:29:34;205.10;2252.80
56123;DHT22;42426;46.104;19.656;2023-12-14T20:31:59;205.10;2252.80
56123;DHT22;42426;46.104;19.656;2023-12-14T20:34:25;205.10;2252.80
56123;DHT22;42426;46.104;19.656;2023-12-14T20:36:51;205.10;2252.80
56123;DHT22;42426;46.104;19.656;2023-12-14T20:39:17;205.10;2252.80
56123;DHT22;42426;46.104;19.656;2023-12-14T20:41:42;205.10;2252.80
56123;DHT22;42426;46.104;19.656;2023-12-14T20:44:08;205.10;2252.80
56123;DHT22;42426;46.104;19.656;2023-12-14T20:46:34;205.10;2252.80
56123;DHT22;42426;46.104;19.656;2023-12-14T20:49:00;205.10;2252.80
56123;DHT22;42426;46.104;19.656;2023-12-14T20:51:26;205.10;2252.80
56123;DHT22;42426;46.104;19.656;2023-12-14T20:53:52;205.10;2252.80
56123;DHT22;42426;46.104;19.656;2023-12-14T20:56:18;205.10;2252.80
56123;DHT22;42426;46.104;19.656;2023-12-14T20:58:44;205.10;2252.80
56123;DHT22;42426;46.104;19.656;2023-12-14T21:01:09;205.10;2252.80
56123;DHT22;42426;46.104;19.656;2023-12-14T21:03:35;205.40;2252.80
56123;DHT22;42426;46.104;19.656;2023-12-14T21:06:06;205.00;2252.80
56123;DHT22;42426;46.104;19.656;2023-12-14T21:08:31;205.00;2252.80
56123;DHT22;42426;46.104;19.656;2023-12-14T21:10:57;205.00;2252.80
56123;DHT22;42426;46.104;19.656;2023-12-14T21:13:24;205.00;2252.80
56123;DHT22;42426;46.104;19.656;2023-12-14T21:15:49;205.00;2252.80
56123;DHT22;42426;46.104;19.656;2023-12-14T21:18:15;205.00;2252.80
56123;DHT22;42426;46.104;19.656;2023-12-14T21:20:41;204.90;2252.80
56123;DHT22;42426;46.104;19.656;2023-12-14T21:23:07;204.90;2252.80
56123;DHT22;42426;46.104;19.656;2023-12-14T21:25:33;204.90;2252.80
56123;DHT22;42426;46.104;19.656;2023-12-14T21:28:16;204.90;2252.80
56123;DHT22;42426;46.104;19.656;2023-12-14T21:30:42;204.80;2252.80
56123;DHT22;42426;46.104;19.656;2023-12-14T21:33:08;204.80;2252.80
56123;DHT22;42426;46.104;19.656;2023-12-14T21:35:35;204.80;2252.80
56123;DHT22;42426;46.104;19.656;2023-12-14T21:38:01;204.80;2252.80
56123;DHT22;42426;46.104;19.656;2023-12-14T21:40:26;204.80;2252.80
56123;DHT22;42426;46.104;19.656;2023-12-14T21:42:52;204.80;2252.80
56123;DHT22;42426;46.104;19.656;2023-12-14T21:45:19;204.80;2252.80
56123;DHT22;42426;46.104;19.656;2023-12-14T21:47:45;204.80;2252.80
56123;DHT22;42426;46.104;19.656;2023-12-14T21:50:11;204.80;2252.80
56123;DHT22;42426;46.104;19.656;2023-12-14T21:52:37;204.80;2252.80
56123;DHT22;42426;46.104;19.656;2023-12-14T21:55:04;204.80;2252.80
56123;DHT22;42426;46.104;19.656;2023-12-14T21:57:29;180.10;2252.80
56123;DHT22;42426;46.104;19.656;2023-12-14T21:59:55;204.80;2252.80
56123;DHT22;42426;46.104;19.656;2023-12-14T22:02:21;204.80;2252.80
56123;DHT22;42426;46.104;19.656;2023-12-14T22:04:48;204.80;2252.80
56123;DHT22;42426;46.104;19.656;2023-12-14T22:07:13;180.10;2252.80
56123;DHT22;42426;46.104;19.656;2023-12-14T22:09:39;204.80;2252.80
56123;DHT22;42426;46.104;19.656;2023-12-14T22:12:05;180.10;2252.80
56123;DHT22;42426;46.104;19.656;2023-12-14T22:14:31;180.10;2252.80
56123;DHT22;42426;46.104;19.656;2023-12-14T22:16:57;180.10;2252.80
56123;DHT22;42426;46.104;19.656;2023-12-14T22:19:23;180.10;2252.80
56123;DHT22;42426;46.104;19.656;2023-12-14T22:21:49;180.00;2252.80
56123;DHT22;42426;46.104;19.656;2023-12-14T22:24:16;180.00;2252.80
56123;DHT22;42426;46.104;19.656;2023-12-14T22:26:41;179.90;2252.80
56123;DHT22;42426;46.104;19.656;2023-12-14T22:29:08;179.90;2252.80
56123;DHT22;42426;46.104;19.656;2023-12-14T22:31:33;179.90;2252.80
56123;DHT22;42426;46.104;19.656;2023-12-14T22:33:59;179.90;2252.80
56123;DHT22;42426;46.104;19.656;2023-12-14T22:36:25;179.90;2252.80
56123;DHT22;42426;46.104;19.656;2023-12-14T22:38:51;179.90;2252.80
56123;DHT22;42426;46.104;19.656;2023-12-14T22:41:17;179.80;2252.80
56123;DHT22;42426;46.104;19.656;2023-12-14T22:43:44;179.80;2252.80
56123;DHT22;42426;46.104;19.656;2023-12-14T22:46:10;179.70;2252.80
56123;DHT22;42426;46.104;19.656;2023-12-14T22:48:35;179.70;2252.80
56123;DHT22;42426;46.104;19.656;2023-12-14T22:51:01;179.70;2252.80
56123;DHT22;42426;46.104;19.656;2023-12-14T22:53:27;179.70;2252.80
56123;DHT22;42426;46.104;19.656;2023-12-14T22:55:55;179.70;2252.80
56123;DHT22;42426;46.104;19.656;2023-12-14T22:58:21;179.70;2252.80
56123;DHT22;42426;46.104;19.656;2023-12-14T23:00:46;179.70;2252.80
56123;DHT22;42426;46.104;19.656;2023-12-14T23:03:12;179.70;2252.80
56123;DHT22;42426;46.104;19.656;2023-12-14T23:05:39;179.70;2252.80
56123;DHT22;42426;46.104;19.656;2023-12-14T23:08:05;179.70;2252.80
56123;DHT22;42426;46.104;19.656;2023-12-14T23:10:31;179.70;2252.80
56123;DHT22;42426;46.104;19.656;2023-12-14T23:12:56;179.70;2252.80
56123;DHT22;42426;46.104;19.656;2023-12-14T23:15:22;179.60;2252.80
56123;DHT22;42426;46.104;19.656;2023-12-14T23:17:48;179.60;2252.80
56123;DHT22;42426;46.104;19.656;2023-12-14T23:20:14;179.60;2252.80
56123;DHT22;42426;46.104;19.656;2023-12-14T23:22:40;179.60;2252.80
56123;DHT22;42426;46.104;19.656;2023-12-14T23:25:06;179.50;2252.80
56123;DHT22;42426;46.104;19.656;2023-12-14T23:27:32;179.50;2252.80
56123;DHT22;42426;46.104;19.656;2023-12-14T23:29:58;179.50;2252.80
56123;DHT22;42426;46.104;19.656;2023-12-14T23:32:24;179.50;2252.80
56123;DHT22;42426;46.104;19.656;2023-12-14T23:34:50;179.50;2252.80
56123;DHT22;42426;46.104;19.656;2023-12-14T23:37:15;179.50;2252.80
56123;DHT22;42426;46.104;19.656;2023-12-14T23:39:44;179.50;2252.80
56123;DHT22;42426;46.104;19.656;2023-12-14T23:42:10;179.50;2252.80
56123;DHT22;42426;46.104;19.656;2023-12-14T23:44:37;179.40;2252.80
56123;DHT22;42426;46.104;19.656;2023-12-14T23:47:03;179.30;2252.80
56123;DHT22;42426;46.104;19.656;2023-12-14T23:49:29;179.40;2252.80
56123;DHT22;42426;46.104;19.656;2023-12-14T23:51:54;179.30;2252.80
56123;DHT22;42426;46.104;19.656;2023-12-14T23:54:20;179.30;2252.80
56123;DHT22;42426;46.104;19.656;2023-12-14T23:56:46;179.30;2252.80
56123;DHT22;42426;46.104;19.656;2023-12-14T23:59:12;179.30;2252.80
